This is the latest recevied weather packets stored in our database for station/object IT9RID. If no packets are shown the sender has not sent any weather packets the latest 10 day(s).
| Time | Temp. | Humidity | Pressure | Rain* | Wind** | Luminosity | Snow |
|---|---|---|---|---|---|---|---|
| 1787833634 | 37.22° C | 38% | 1015.6 hPa | 0 mm | - | - | - |
| 1787833035 | 37.22° C | 39% | 1015.6 hPa | 0 mm | - | - | - |
| 1787832434 | 36.67° C | 43% | 1015.7 hPa | 0 mm | - | - | - |
| 1787831834 | 36.67° C | 42% | 1015.9 hPa | 0 mm | - | - | - |
| 1787831234 | 36.67° C | 43% | 1016 hPa | 0 mm | - | - | - |
| 1787830634 | 37.22° C | 35% | 1016 hPa | 0 mm | - | - | - |
| 1787830033 | 36.11° C | 36% | 1016.1 hPa | 0 mm | - | - | - |
| 1787829433 | 36.67° C | 36% | 1016.2 hPa | 0 mm | - | - | - |
| 1787828833 | 36.67° C | 34% | 1016.3 hPa | 0 mm | - | - | - |
| 1787828233 | 36.11° C | 38% | 1016.4 hPa | 0 mm | - | - | - |
| 1787827033 | 35.56° C | 44% | 1016.6 hPa | 0 mm | - | - | - |
| 1787826432 | 35° C | 50% | 1016.8 hPa | 0 mm | - | - | - |
| 1787825832 | 35° C | 48% | 1016.9 hPa | 0 mm | - | - | - |
| 1787825232 | 35° C | 44% | 1017 hPa | 0 mm | - | - | - |
| 1787824633 | 35.56° C | 36% | 1017.1 hPa | 0 mm | - | - | - |
| 1787824032 | 35° C | 37% | 1017.2 hPa | 0 mm | - | - | - |
| 1787823432 | 35.56° C | 38% | 1017.1 hPa | 0 mm | - | - | - |
| 1787822832 | 35° C | 38% | 1017 hPa | 0 mm | - | - | - |
| 1787822232 | 34.44° C | 44% | 1017.2 hPa | 0 mm | - | - | - |
| 1787821631 | 34.44° C | 46% | 1017.3 hPa | 0 mm | - | - | - |
| 1787821031 | 35° C | 40% | 1017.3 hPa | 0 mm | - | - | - |
| 1787820432 | 34.44° C | 41% | 1017.3 hPa | 0 mm | - | - | - |
| 1787819831 | 33.89° C | 44% | 1017.2 hPa | 0 mm | - | - | - |
| 1787819231 | 33.33° C | 45% | 1017.1 hPa | 0 mm | - | - | - |
| 1787818631 | 32.78° C | 48% | 1017.2 hPa | 0 mm | - | - | - |
* Rain latest hour (hover to see other rain measurements)
** Current wind speed in m/s (hover to see current wind gust speed)